Buchanan, TN (38222)

5:49 PM CDT on July 25, 2016 (GMT -0500)
Highway 69 N | | Change Station

Elev 495 ft 36.31 °N, 88.34 °W | Updated 11 minutes ago

Mostly Cloudy
Mostly Cloudy
79.6 °F
Feels Like 84 °F
N
0.0
Wind Variable Wind from East
Gusts 4.0 mph

Today
High -- | Low -- °F
--% Chance of Precip.
Yesterday
High -- | Low -- °F
Precip. -- in
Pressure 29.99 in
Visibility 3.0 miles
Clouds Few 300 ft
Scattered Clouds 2700 ft
Mostly Cloudy 3500 ft
Heat Index 84 °F
Dew Point 75 °F
Humidity 86%
Rainfall 0.00 in
Snow Depth Not available.
5:55 AM 8:04 PM
Waning Gibbous, 61% visible
METAR KCEY 252235Z AUTO 26005KT 3SM FEW003 SCT027 BKN035 23/23 A2999 RMK AO1 P0043
Pressure 29.99 in
Visibility 3.0 miles
Clouds Few 300 ft
Scattered Clouds 2700 ft
Mostly Cloudy 3500 ft
Heat Index 84 °F
Dew Point 75 °F
Humidity 86%
Rainfall 0.00 in
Snow Depth Not available.
5:55 AM 8:04 PM
Waning Gibbous, 61% visible
METAR KCEY 252235Z AUTO 26005KT 3SM FEW003 SCT027 BKN035 23/23 A2999 RMK AO1 P0043
Record highs are possible for parts of the Northeast Monday and Tuesday, as parts of the central U.S. take a little breather from the worst of summer's dog day heat.

Expansive high pressure in the upper atmosphere will focus on parts of the East and West this week, sending heat indices well into the triple digits from the Mid-Atlantic states into the South.

10-Day Weather Forecast

Almanac

Astronomy

Jul. 25, 2016 Rise Set
Actual Time
Civil Twilight
Nautical Twilight
Astronomical Twilight
Moon
Length of Visible Light
Length of Day
Tomorrow will be .
, % of the Moon is Illuminated

Today's Extremes

State Highs State Lows

Community

WunderPhotos

Upload Photos

1,927,436 photos uploaded!

WunderBlog® & News

Nearby

Air Quality

  Air Quality AQ Index Pollutant
Not available.

Snow Depth

Station Depth Elevation

Earthquake Activity

City Distance Mag. Time & Date
Minimum magnitude displayed is 2.5.

Coastal Water Temperatures

Place Temperature

Stations

Nearby Weather Stations

Station Location Temp. Windchill Dew Point Humidity Wind Precip. Elev Updated Type
                   

Watches & Warnings

There are currently no watches in effect.